Time;durP1;ratioP1;P1;durP2;ratioP2;P2;SDS_P1;SDS_P2;PMS_P1;PMS_P2;Temp;Humidity;BMP_temperature;BMP_pressure;BME280_temperature;BME280_humidity;BME280_pressure;Samples;Min_cycle;Max_cycle;Signal;HPM_P1;HPM_P2
2023/07/14 00:01:38;;;;;;;5.78;2.58;;;;;;;16.18;89.43;101505.06;5004639;28;20021;-74
2023/07/14 00:04:15;;;;;;;8.70;2.35;;;;;;;16.19;89.35;101493.59;5004860;28;20453;-74
2023/07/14 00:06:41;;;;;;;7.65;3.25;;;;;;;16.17;89.51;101492.16;4995853;28;20034;-74
2023/07/14 00:09:26;;;;;;;9.30;2.50;;;;;;;16.14;89.28;101491.50;5004400;28;20049;-74
2023/07/14 00:11:53;;;;;;;6.30;2.53;;;;;;;16.07;89.85;101495.81;5006212;28;20037;-73
2023/07/14 00:14:18;;;;;;;6.05;2.50;;;;;;;16.07;90.44;101497.63;4999870;28;20042;-74
2023/07/14 00:16:44;;;;;;;4.72;2.25;;;;;;;16.08;90.28;101492.19;5006170;28;20673;-74
2023/07/14 00:19:12;;;;;;;4.55;2.83;;;;;;;16.08;89.94;101483.53;5007446;28;20095;-73
2023/07/14 00:21:38;;;;;;;6.82;2.75;;;;;;;16.09;90.00;101485.97;5006888;28;20591;-74
2023/07/14 00:24:09;;;;;;;6.10;2.28;;;;;;;16.09;89.76;101483.38;5009176;28;20042;-74
2023/07/14 00:26:34;;;;;;;6.72;2.30;;;;;;;16.10;89.59;101478.94;5003413;28;20041;-74
2023/07/14 00:29:04;;;;;;;9.50;2.60;;;;;;;16.06;89.42;101480.28;5012807;28;20034;-74
2023/07/14 00:31:30;;;;;;;5.50;2.53;;;;;;;15.98;89.55;101478.56;5011180;28;20129;-74
2023/07/14 00:33:56;;;;;;;6.60;2.30;;;;;;;15.94;89.81;101488.53;5006036;28;20046;-74
2023/07/14 00:36:22;;;;;;;8.45;3.08;;;;;;;15.91;90.11;101480.22;4989310;28;20061;-74
2023/07/14 00:38:47;;;;;;;4.93;2.58;;;;;;;15.89;90.12;101482.22;5004700;28;20049;-74
2023/07/14 00:41:23;;;;;;;5.07;2.38;;;;;;;15.85;90.52;101483.56;5022813;28;20022;-74
2023/07/14 00:43:49;;;;;;;6.05;2.20;;;;;;;15.85;90.69;101480.94;5007053;28;20046;-74
2023/07/14 00:46:32;;;;;;;5.85;2.30;;;;;;;15.87;90.40;101486.81;5006295;28;20404;-73
2023/07/14 00:49:02;;;;;;;6.05;2.63;;;;;;;15.91;90.40;101485.47;5005194;28;20100;-74
2023/07/14 00:51:30;;;;;;;6.00;2.30;;;;;;;15.92;90.14;101477.44;5008591;28;20168;-74
2023/07/14 00:53:56;;;;;;;5.97;2.45;;;;;;;15.93;90.05;101463.38;5003571;28;20103;-74
2023/07/14 00:56:33;;;;;;;9.40;2.83;;;;;;;15.90;90.25;101473.38;5008377;28;20116;-74
2023/07/14 00:58:59;;;;;;;11.25;2.60;;;;;;;15.85;90.58;101473.91;5010188;28;20029;-74
2023/07/14 01:01:25;;;;;;;3.88;1.88;;;;;;;15.86;90.75;101469.47;5007422;28;20103;-74
2023/07/14 01:03:55;;;;;;;8.48;2.25;;;;;;;15.88;90.55;101470.94;5007622;28;20133;-74
2023/07/14 01:06:27;;;;;;;7.40;2.22;;;;;;;15.91;90.57;101473.19;5003992;28;20030;-74
2023/07/14 01:09:04;;;;;;;4.30;2.13;;;;;;;15.93;90.35;101467.78;5007530;28;20377;-74
2023/07/14 01:11:38;;;;;;;4.55;2.30;;;;;;;15.95;90.16;101471.03;5000008;28;20083;-74
2023/07/14 01:14:21;;;;;;;6.00;2.15;;;;;;;15.96;90.04;101464.84;4995297;28;20042;-74
2023/07/14 01:16:50;;;;;;;4.60;2.28;;;;;;;15.96;89.81;101468.25;5009164;28;20037;-74
2023/07/14 01:19:40;;;;;;;4.22;1.90;;;;;;;15.96;89.84;101468.25;5004691;28;20581;-74
2023/07/14 01:22:23;;;;;;;7.28;1.75;;;;;;;15.95;89.72;101469.25;5018888;28;20069;-74
2023/07/14 01:25:05;;;;;;;;;;;;;;;15.93;89.42;101471.22;5008547;28;20726;-74
2023/07/14 01:27:30;;;;;;;10.80;2.40;;;;;;;15.85;89.55;101465.25;5005254;28;20419;-74
2023/07/14 01:29:56;;;;;;;5.55;1.83;;;;;;;15.75;90.42;101468.09;5006266;28;20042;-74
2023/07/14 01:32:24;;;;;;;6.57;2.10;;;;;;;15.63;90.61;101461.59;5009766;28;20452;-74
2023/07/14 01:34:50;;;;;;;11.10;2.55;;;;;;;15.50;91.50;101464.78;5004031;28;20041;-74
2023/07/14 01:37:19;;;;;;;6.25;2.70;;;;;;;15.44;91.87;101461.03;5005797;28;20417;-74
2023/07/14 01:39:47;;;;;;;6.18;2.17;;;;;;;15.37;92.38;101467.97;5005562;28;20168;-75
2023/07/14 01:42:12;;;;;;;5.43;2.15;;;;;;;15.32;92.56;101463.25;5008817;28;20041;-74
2023/07/14 01:44:38;;;;;;;5.85;1.95;;;;;;;15.29;92.94;101466.19;5004607;28;20041;-74
2023/07/14 01:47:07;;;;;;;5.93;2.25;;;;;;;15.29;92.96;101465.38;5005687;28;20570;-74
2023/07/14 01:49:51;;;;;;;5.30;2.45;;;;;;;15.26;93.12;101456.09;5008060;28;20045;-74
2023/07/14 01:52:24;;;;;;;7.10;2.15;;;;;;;15.26;93.08;101465.72;5008992;28;20030;-74
2023/07/14 01:55:02;;;;;;;8.88;3.20;;;;;;;15.28;93.05;101455.94;4993730;28;20041;-73
2023/07/14 01:57:33;;;;;;;7.18;2.92;;;;;;;15.29;92.92;101454.94;4984957;28;20026;-74
2023/07/14 02:00:09;;;;;;;9.13;2.97;;;;;;;15.32;92.83;101454.59;5022933;28;20173;-75
2023/07/14 02:02:43;;;;;;;8.98;2.60;;;;;;;15.34;92.82;101458.66;5007383;28;20068;-74
2023/07/14 02:05:30;;;;;;;5.57;2.08;;;;;;;15.39;92.60;101460.78;5000500;28;20042;-74
2023/07/14 02:08:00;;;;;;;5.65;2.40;;;;;;;15.42;92.62;101459.59;5001732;28;20136;-74
2023/07/14 02:10:25;;;;;;;9.60;2.30;;;;;;;15.42;92.88;101454.38;5003706;28;20673;-74
2023/07/14 02:12:53;;;;;;;5.50;2.55;;;;;;;15.43;92.74;101450.78;5007957;28;20107;-74
2023/07/14 02:15:24;;;;;;;6.28;2.47;;;;;;;15.43;93.05;101456.00;5005751;28;20041;-74
2023/07/14 02:17:50;;;;;;;6.25;2.42;;;;;;;15.46;92.79;101451.22;5001802;28;20518;-74
2023/07/14 02:20:26;;;;;;;7.75;2.53;;;;;;;15.48;92.59;101451.06;5007062;28;20046;-75
2023/07/14 02:22:53;;;;;;;7.00;2.38;;;;;;;15.49;92.48;101442.25;5013167;28;20496;-74
2023/07/14 02:25:21;;;;;;;6.55;2.60;;;;;;;15.48;92.16;101445.84;5008823;28;20191;-75
2023/07/14 02:27:47;;;;;;;6.70;2.55;;;;;;;15.49;91.90;101440.44;5001796;28;20045;-74
2023/07/14 02:30:16;;;;;;;5.60;2.30;;;;;;;15.51;91.93;101445.50;5004266;28;20045;-74
2023/07/14 02:33:00;;;;;;;6.72;2.42;;;;;;;15.51;91.88;101445.50;5004957;28;20034;-74
2023/07/14 02:35:42;;;;;;;7.03;2.80;;;;;;;15.50;91.76;101446.47;5003580;28;21036;-74
2023/07/14 02:38:16;;;;;;;7.90;2.33;;;;;;;15.50;91.88;101446.47;5006445;28;20030;-74
2023/07/14 02:40:47;;;;;;;4.18;2.35;;;;;;;15.51;91.68;101440.28;5005688;28;20092;-74
2023/07/14 02:43:17;;;;;;;5.38;2.22;;;;;;;15.49;91.42;101440.44;5010671;28;20038;-75
2023/07/14 02:46:03;;;;;;;4.90;2.50;;;;;;;15.48;91.81;101438.84;5006760;28;20041;-74
2023/07/14 02:48:32;;;;;;;6.45;2.30;;;;;;;15.45;91.88;101439.16;5005385;28;20072;-74
2023/07/14 02:50:58;;;;;;;3.65;2.25;;;;;;;15.46;92.33;101434.75;5006801;28;20037;-74
2023/07/14 02:53:24;;;;;;;3.85;2.13;;;;;;;15.47;92.22;101433.78;4994946;28;20411;-74
2023/07/14 02:55:50;;;;;;;6.88;2.75;;;;;;;15.48;91.65;101443.22;4999513;28;20025;-74
2023/07/14 02:58:15;;;;;;;6.43;2.45;;;;;;;15.48;91.43;101438.84;5011322;28;20088;-74
2023/07/14 03:00:41;;;;;;;5.72;2.72;;;;;;;15.49;91.26;101439.63;5010364;28;20045;-74
2023/07/14 03:03:06;;;;;;;4.68;2.20;;;;;;;15.48;91.04;101435.38;5010017;28;20026;-74
2023/07/14 03:05:32;;;;;;;3.20;1.85;;;;;;;15.49;90.81;101434.41;5015513;28;20069;-74
2023/07/14 03:07:57;;;;;;;2.85;2.25;;;;;;;15.47;90.82;101439.00;5011533;28;20034;-74
2023/07/14 03:10:23;;;;;;;4.22;2.25;;;;;;;15.45;91.08;101440.97;5008626;28;21013;-74
2023/07/14 03:12:49;;;;;;;5.95;2.30;;;;;;;15.44;91.29;101436.72;5010236;28;20030;-74
2023/07/14 03:15:14;;;;;;;4.72;2.25;;;;;;;15.42;91.86;101444.72;5011994;28;20042;-74
2023/07/14 03:17:40;;;;;;;6.40;2.13;;;;;;;15.42;91.72;101430.84;5007013;28;20037;-74
2023/07/14 03:20:10;;;;;;;4.30;1.83;;;;;;;15.41;91.71;101432.66;5005094;28;20069;-73
2023/07/14 03:22:36;;;;;;;5.03;2.42;;;;;;;15.41;91.62;101437.88;5004703;28;20473;-74
2023/07/14 03:25:01;;;;;;;7.45;2.10;;;;;;;15.40;91.77;101430.22;5010970;28;20107;-74
2023/07/14 03:27:27;;;;;;;5.13;2.38;;;;;;;15.40;91.65;101433.63;5005488;28;20038;-74
2023/07/14 03:29:53;;;;;;;3.20;2.00;;;;;;;15.42;91.33;101436.88;5010058;28;20054;-74
2023/07/14 03:32:19;;;;;;;5.47;2.53;;;;;;;15.41;91.25;101435.28;5011802;28;20061;-74
2023/07/14 03:34:44;;;;;;;4.93;2.05;;;;;;;15.42;91.03;101433.47;5014521;28;20504;-74
2023/07/14 03:37:10;;;;;;;4.07;2.13;;;;;;;15.42;90.92;101428.25;5008638;28;20038;-74
2023/07/14 03:39:35;;;;;;;3.58;2.25;;;;;;;15.43;90.67;101424.66;5014518;28;20041;-75
2023/07/14 03:42:00;;;;;;;5.13;2.75;;;;;;;15.43;91.15;101419.44;5009963;28;20026;-74
2023/07/14 03:44:27;;;;;;;5.72;3.05;;;;;;;15.41;91.06;101424.81;5009367;28;20041;-74
2023/07/14 03:46:52;;;;;;;4.38;2.10;;;;;;;15.36;92.03;101424.53;5011385;28;20076;-74
2023/07/14 03:49:18;;;;;;;5.53;2.03;;;;;;;15.32;92.51;101418.81;5022478;28;20053;-74
2023/07/14 03:51:44;;;;;;;6.95;2.33;;;;;;;15.32;92.49;101418.81;5010009;28;20043;-73
2023/07/14 03:54:10;;;;;;;7.00;2.22;;;;;;;15.37;91.79;101420.94;5010892;28;20050;-74
2023/07/14 03:56:36;;;;;;;4.55;2.28;;;;;;;15.32;92.41;101426.66;5008205;28;20021;-74
2023/07/14 03:59:02;;;;;;;4.38;2.10;;;;;;;15.31;92.69;101417.22;5014708;28;20504;-74
2023/07/14 04:01:27;;;;;;;4.55;2.58;;;;;;;15.31;92.54;101419.81;5015675;28;20021;-74
2023/07/14 04:03:54;;;;;;;8.88;3.10;;;;;;;15.32;92.59;101424.03;4995688;28;20034;-74
2023/07/14 04:06:19;;;;;;;5.63;2.60;;;;;;;15.30;92.78;101418.19;5007863;28;20045;-74
2023/07/14 04:08:45;;;;;;;6.22;2.75;;;;;;;15.32;92.79;101428.47;5008940;28;20294;-74
2023/07/14 04:11:12;;;;;;;5.50;2.33;;;;;;;15.33;92.61;101422.25;4990689;28;20031;-74
2023/07/14 04:13:38;;;;;;;4.15;2.13;;;;;;;15.33;92.39;101430.91;5023625;28;20033;-74
2023/07/14 04:16:07;;;;;;;5.50;2.40;;;;;;;15.35;92.69;101436.78;5010314;28;20466;-74
2023/07/14 04:18:33;;;;;;;4.82;2.30;;;;;;;15.35;92.78;101434.16;4996656;28;20096;-74
2023/07/14 04:21:06;;;;;;;8.32;2.10;;;;;;;15.35;92.69;101433.31;5009580;28;20109;-74
2023/07/14 04:23:32;;;;;;;4.43;2.50;;;;;;;15.36;92.59;101432.34;5007495;28;20409;-74
2023/07/14 04:25:58;;;;;;;5.10;2.20;;;;;;;15.37;92.30;101428.78;5005782;28;20029;-74
2023/07/14 04:28:24;;;;;;;6.32;2.70;;;;;;;15.37;91.88;101426.97;5007381;28;20034;-74
2023/07/14 04:30:58;;;;;;;6.28;2.45;;;;;;;15.39;91.69;101429.41;4990635;28;20026;-75
2023/07/14 04:33:24;;;;;;;7.32;2.20;;;;;;;15.38;91.86;101422.53;5008222;28;20042;-74
2023/07/14 04:35:51;;;;;;;6.22;3.00;;;;;;;15.39;91.97;101424.19;4995597;28;20053;-74
2023/07/14 04:38:17;;;;;;;6.20;2.35;;;;;;;15.40;92.09;101431.03;5008370;28;20490;-74
2023/07/14 04:40:44;;;;;;;8.20;2.65;;;;;;;15.41;92.17;101424.81;4998936;28;20048;-75
2023/07/14 04:43:10;;;;;;;9.73;2.65;;;;;;;15.48;92.20;101427.53;5003269;28;20504;-75
2023/07/14 04:45:40;;;;;;;6.82;2.75;;;;;;;15.49;92.34;101429.19;5007217;28;20144;-74
2023/07/14 04:48:08;;;;;;;10.43;3.28;;;;;;;15.51;92.38;101422.78;5009549;28;20500;-76
2023/07/14 04:50:34;;;;;;;8.75;3.65;;;;;;;15.55;92.01;101424.06;5008121;28;20136;-74
2023/07/14 04:53:00;;;;;;;4.78;2.63;;;;;;;15.60;91.72;101425.38;5008982;28;20121;-74
2023/07/14 04:55:28;;;;;;;6.90;2.45;;;;;;;15.64;91.07;101419.59;5006697;28;20046;-75
2023/07/14 04:57:53;;;;;;;7.82;2.25;;;;;;;15.69;91.25;101424.28;5008678;28;20107;-75
2023/07/14 05:00:20;;;;;;;8.52;2.42;;;;;;;15.72;91.37;101426.56;5005268;28;20045;-74
2023/07/14 05:02:46;;;;;;;7.85;2.70;;;;;;;15.76;90.58;101425.25;5007235;28;20030;-75
2023/07/14 05:05:20;;;;;;;10.63;3.15;;;;;;;15.76;90.80;101426.09;5005643;28;20145;-74
2023/07/14 05:07:47;;;;;;;7.65;2.65;;;;;;;15.78;90.74;101420.66;5004057;28;20029;-74
2023/07/14 05:10:12;;;;;;;7.03;2.83;;;;;;;15.82;91.05;101416.72;5004640;28;20041;-74
2023/07/14 05:12:38;;;;;;;5.18;2.42;;;;;;;15.86;91.04;101409.31;5013249;28;20034;-75
2023/07/14 05:15:05;;;;;;;7.10;2.67;;;;;;;15.88;90.71;101412.56;4995427;28;20076;-74
2023/07/14 05:17:33;;;;;;;6.97;2.75;;;;;;;15.91;90.19;101417.47;5008085;28;20135;-74
2023/07/14 05:19:59;;;;;;;5.97;2.35;;;;;;;15.94;90.13;101414.50;5005016;28;20500;-75
2023/07/14 05:22:25;;;;;;;8.57;2.83;;;;;;;16.07;89.67;101413.91;4990587;28;20076;-74
2023/07/14 05:24:50;;;;;;;5.60;2.30;;;;;;;16.01;89.26;101420.66;5011651;28;20048;-75
2023/07/14 05:27:15;;;;;;;6.68;2.63;;;;;;;16.00;89.30;101410.38;5002350;28;20037;-77
2023/07/14 05:29:41;;;;;;;7.18;2.70;;;;;;;15.97;89.02;101419.38;5007140;28;20496;-74
2023/07/14 05:32:07;;;;;;;9.48;2.67;;;;;;;16.05;88.65;101418.47;5008665;28;20800;-75
2023/07/14 05:34:32;;;;;;;8.18;3.20;;;;;;;16.15;88.34;101417.25;5024423;28;20069;-75
2023/07/14 05:36:58;;;;;;;5.10;2.10;;;;;;;16.28;87.93;101424.50;5009294;28;20061;-75
2023/07/14 05:39:25;;;;;;;6.32;2.63;;;;;;;16.43;87.23;101421.09;5005997;28;20571;-74
2023/07/14 05:41:50;;;;;;;6.50;2.55;;;;;;;16.53;86.82;101417.19;5006035;28;20036;-74
2023/07/14 05:44:16;;;;;;;11.88;3.45;;;;;;;16.69;85.44;101410.19;4994138;28;20456;-74
2023/07/14 05:46:42;;;;;;;4.03;2.20;;;;;;;16.80;85.57;101412.34;5008098;28;20048;-75
2023/07/14 05:49:07;;;;;;;5.93;2.20;;;;;;;16.92;84.43;101410.91;5002271;28;20501;-74
2023/07/14 05:51:33;;;;;;;8.07;2.47;;;;;;;17.09;84.58;101413.31;5003965;28;20034;-74
2023/07/14 05:53:58;;;;;;;6.80;2.30;;;;;;;17.24;83.22;101408.84;5003753;28;20673;-74
2023/07/14 05:56:24;;;;;;;6.15;2.53;;;;;;;17.44;82.59;101405.59;5007968;28;20029;-74
2023/07/14 05:58:49;;;;;;;10.90;2.88;;;;;;;17.68;81.69;101405.22;5005707;28;20037;-74
2023/07/14 06:01:15;;;;;;;8.40;2.60;;;;;;;17.99;79.61;101404.13;5006936;28;20037;-74
2023/07/14 06:03:41;;;;;;;8.70;2.65;;;;;;;18.20;78.58;101405.06;5005721;28;20049;-74
2023/07/14 06:06:07;;;;;;;4.22;2.03;;;;;;;18.44;77.61;101399.38;5025557;28;20026;-75
2023/07/14 06:08:33;;;;;;;7.10;2.47;;;;;;;18.66;76.42;101388.75;4998091;28;20057;-75
2023/07/14 06:10:58;;;;;;;7.95;2.50;;;;;;;18.88;75.61;101389.50;5004674;28;20038;-75
2023/07/14 06:13:24;;;;;;;9.90;3.38;;;;;;;19.17;73.92;101380.47;4984657;28;20072;-75
2023/07/14 06:15:49;;;;;;;11.10;2.58;;;;;;;19.24;71.71;101385.75;5006101;28;20036;-75
2023/07/14 06:18:15;;;;;;;7.00;2.13;;;;;;;19.19;72.91;101382.91;5007111;28;20044;-74
2023/07/14 06:20:41;;;;;;;9.52;2.40;;;;;;;19.41;71.37;101380.94;5002701;28;20052;-75
2023/07/14 06:23:07;;;;;;;7.10;2.15;;;;;;;19.61;69.32;101381.75;5002606;28;20034;-75
2023/07/14 06:25:33;;;;;;;8.80;2.40;;;;;;;19.61;69.83;101379.13;5008401;28;20065;-75
2023/07/14 06:28:00;;;;;;;5.63;2.30;;;;;;;19.77;70.55;101387.66;5010420;28;20064;-75
2023/07/14 06:30:26;;;;;;;6.45;2.50;;;;;;;20.00;69.52;101379.34;5007323;28;20057;-75
2023/07/14 06:32:51;;;;;;;8.32;2.33;;;;;;;20.07;68.63;101377.50;5010979;28;20038;-76
2023/07/14 06:35:18;;;;;;;8.02;2.13;;;;;;;20.21;69.06;101373.03;5009738;28;20045;-78
2023/07/14 06:37:43;;;;;;;6.22;2.00;;;;;;;20.35;68.14;101374.63;4991197;28;20070;-76
2023/07/14 06:40:10;;;;;;;11.25;3.03;;;;;;;20.64;67.59;101367.25;5009451;28;20050;-75
2023/07/14 06:42:36;;;;;;;6.30;2.13;;;;;;;20.88;67.08;101365.72;5012009;28;20538;-76
2023/07/14 06:45:03;;;;;;;5.35;2.42;;;;;;;21.09;64.63;101366.41;5000296;28;20064;-75
2023/07/14 06:47:30;;;;;;;7.60;2.00;;;;;;;21.22;63.79;101360.25;5008827;28;20091;-76
2023/07/14 06:49:56;;;;;;;9.60;3.00;;;;;;;21.50;62.66;101362.53;5006787;28;20045;-80
2023/07/14 06:52:22;;;;;;;3.83;2.20;;;;;;;21.61;60.09;101359.19;5008087;28;20667;-74
2023/07/14 06:54:48;;;;;;;7.50;2.05;;;;;;;21.68;60.07;101354.66;5031084;28;20038;-76
2023/07/14 06:57:13;;;;;;;6.60;2.05;;;;;;;21.93;59.83;101353.84;5010064;28;20096;-76
2023/07/14 06:59:39;;;;;;;5.55;1.90;;;;;;;22.05;58.24;101354.72;5006194;28;20050;-79
2023/07/14 07:02:05;;;;;;;6.85;3.08;;;;;;;22.13;57.72;101354.44;5009369;28;20034;-75
2023/07/14 07:04:35;;;;;;;4.93;2.25;;;;;;;22.29;56.79;101352.28;4995232;28;20057;-76
2023/07/14 07:07:00;;;;;;;7.03;2.10;;;;;;;22.57;56.96;101343.81;5017148;28;20034;-76
2023/07/14 07:09:27;;;;;;;6.63;1.70;;;;;;;22.87;56.66;101350.94;5004800;28;20405;-75
2023/07/14 07:11:53;;;;;;;6.22;1.60;;;;;;;23.09;54.85;101346.78;5006769;28;20038;-76
2023/07/14 07:14:18;;;;;;;4.45;1.80;;;;;;;23.36;53.69;101343.72;5013582;28;20045;-76
2023/07/14 07:16:44;;;;;;;4.18;1.52;;;;;;;23.40;52.31;101336.94;5005235;28;20452;-76
2023/07/14 07:19:09;;;;;;;6.00;2.05;;;;;;;23.61;51.95;101342.72;4998510;28;20040;-76
2023/07/14 07:21:35;;;;;;;3.58;1.90;;;;;;;23.98;52.80;101332.72;5010134;28;20038;-76
2023/07/14 07:24:03;;;;;;;4.53;2.22;;;;;;;24.15;52.71;101334.63;5005728;28;20052;-75
2023/07/14 07:26:29;;;;;;;4.05;1.70;;;;;;;24.01;52.49;101337.53;5007321;28;20034;-76
2023/07/14 07:28:54;;;;;;;8.88;1.65;;;;;;;23.86;54.32;101335.34;5010697;28;20071;-76
2023/07/14 07:31:21;;;;;;;4.70;2.00;;;;;;;24.21;53.79;101325.75;5010363;28;20038;-76
2023/07/14 07:33:46;;;;;;;5.45;1.63;;;;;;;24.93;51.46;101327.91;4995488;28;20042;-76
2023/07/14 07:36:16;;;;;;;3.10;1.65;;;;;;;25.14;48.41;101330.91;5010447;28;20034;-76
2023/07/14 07:38:48;;;;;;;7.05;2.05;;;;;;;25.61;48.09;101333.25;5009082;28;20045;-77
2023/07/14 07:41:15;;;;;;;4.07;1.75;;;;;;;25.66;47.28;101319.25;5008231;28;20041;-76
2023/07/14 07:43:41;;;;;;;5.22;1.85;;;;;;;26.01;47.02;101327.72;5010584;28;20086;-76
2023/07/14 07:46:08;;;;;;;6.55;1.67;;;;;;;26.32;45.67;101320.13;5007665;28;20030;-76
2023/07/14 07:48:35;;;;;;;3.17;1.63;;;;;;;26.16;45.37;101315.66;5008839;28;20037;-75
2023/07/14 07:51:02;;;;;;;3.20;1.70;;;;;;;26.48;31.23;101315.75;5001688;28;20133;-75
2023/07/14 07:53:28;;;;;;;3.28;1.63;;;;;;;26.16;45.65;101307.69;5008120;28;20038;-77
2023/07/14 07:55:57;;;;;;;6.47;1.70;;;;;;;25.73;45.47;101311.91;5009733;28;20029;-76
2023/07/14 07:58:26;;;;;;;7.20;1.90;;;;;;;25.18;45.21;101300.19;5005284;28;20502;-76
2023/07/14 08:00:56;;;;;;;4.15;1.92;;;;;;;24.69;48.02;101306.00;5012491;28;20105;-77
2023/07/14 08:03:22;;;;;;;6.45;1.73;;;;;;;24.90;49.66;101298.41;5028510;28;20036;-76
2023/07/14 08:05:47;;;;;;;8.30;2.10;;;;;;;25.10;49.46;101290.00;5015771;28;20025;-79
2023/07/14 08:08:13;;;;;;;5.90;1.80;;;;;;;24.91;50.25;101290.22;5014737;28;20034;-77
2023/07/14 08:10:45;;;;;;;5.40;1.50;;;;;;;24.98;50.16;101300.69;4992450;28;20049;-77
2023/07/14 08:13:11;;;;;;;4.72;1.65;;;;;;;25.19;49.86;101283.25;4995807;28;20405;-78
2023/07/14 08:15:37;;;;;;;3.30;1.75;;;;;;;25.59;48.41;101284.91;4992422;28;21617;-78
2023/07/14 08:18:03;;;;;;;3.97;2.00;;;;;;;25.84;48.17;101289.75;4993963;28;20064;-79
2023/07/14 08:20:28;;;;;;;3.40;1.30;;;;;;;25.55;48.25;101294.41;4995910;28;20041;-79
2023/07/14 08:22:54;;;;;;;2.60;1.50;;;;;;;24.95;47.33;101290.56;5003336;28;20032;-77
2023/07/14 08:25:21;;;;;;;4.95;1.60;;;;;;;24.64;49.84;101288.19;4995117;28;20048;-79
2023/07/14 08:27:47;;;;;;;4.25;1.50;;;;;;;24.36;51.38;101282.88;5010264;28;20026;-79
2023/07/14 08:30:12;;;;;;;3.60;1.20;;;;;;;24.49;50.74;101280.72;5013053;28;20049;-77
2023/07/14 08:32:37;;;;;;;7.00;1.88;;;;;;;25.15;47.66;101287.44;4992422;28;20528;-78
2023/07/14 08:35:03;;;;;;;6.50;1.80;;;;;;;25.60;46.85;101286.53;5010257;28;20168;-79
2023/07/14 08:37:29;;;;;;;9.63;1.77;;;;;;;26.38;45.67;101275.78;5006911;28;20543;-77
2023/07/14 08:39:54;;;;;;;3.47;1.40;;;;;;;26.86;43.88;101273.31;4990729;28;20038;-77
2023/07/14 08:42:49;;;;;;;2.88;1.20;;;;;;;26.76;44.76;101268.72;5006715;28;20886;-80
2023/07/14 08:45:38;;;;;;;5.50;1.80;;;;;;;26.26;45.11;101272.47;4995766;28;20072;-78
2023/07/14 08:48:26;;;;;;;5.93;1.90;;;;;;;25.99;44.64;101274.06;5007710;28;20030;-79
2023/07/14 08:50:57;;;;;;;4.03;1.23;;;;;;;26.03;45.70;101266.34;5004117;28;20041;-79
2023/07/14 08:53:29;;;;;;;5.28;1.40;;;;;;;26.70;44.76;101267.09;4990283;28;20124;-78
2023/07/14 08:56:04;;;;;;;8.32;1.70;;;;;;;26.69;43.24;101262.81;5006065;28;20030;-76
2023/07/14 08:58:34;;;;;;;5.40;1.50;;;;;;;26.78;43.47;101269.25;5004636;28;20057;-76
2023/07/14 09:01:05;;;;;;;5.13;1.52;;;;;;;26.66;42.65;101263.31;5005636;28;20537;-79
2023/07/14 09:03:40;;;;;;;7.72;1.70;;;;;;;26.69;42.69;101260.16;4992427;28;20128;-80
2023/07/14 09:06:34;;;;;;;4.53;1.42;;;;;;;25.83;44.34;101259.75;5005049;28;20025;-77
2023/07/14 09:09:00;;;;;;;8.23;1.67;;;;;;;25.49;46.10;101260.91;5007878;28;20031;-79
2023/07/14 09:11:57;;;;;;;5.40;1.58;;;;;;;25.21;45.35;101260.72;5008425;28;20505;-78
2023/07/14 09:14:35;;;;;;;9.60;2.05;;;;;;;25.61;45.88;101264.22;5008236;28;20630;-76
2023/07/14 09:17:39;;;;;;;6.60;1.60;;;;;;;25.30;46.23;101255.03;5023534;28;20038;-77
2023/07/14 09:20:23;;;;;;;;;;;;;;;25.51;46.01;101251.63;5006784;28;20107;-79
2023/07/14 09:23:10;;;;;;;5.05;1.40;;;;;;;25.35;47.83;101245.28;5010379;28;21930;-79
2023/07/14 09:25:49;;;;;;;4.30;1.58;;;;;;;25.37;47.54;101247.69;5021226;28;20513;-81
2023/07/14 09:28:25;;;;;;;5.85;1.77;;;;;;;25.68;46.74;101246.28;5007925;28;20108;-78
2023/07/14 09:30:52;;;;;;;5.03;1.55;;;;;;;26.05;45.67;101242.22;5024551;28;20050;-78
2023/07/14 09:33:20;;;;;;;5.20;1.58;;;;;;;26.72;44.35;101227.75;5003936;28;20066;-76
2023/07/14 09:35:49;;;;;;;7.95;1.90;;;;;;;26.87;42.97;101235.03;5019156;28;20057;-79
2023/07/14 09:38:19;;;;;;;4.88;1.75;;;;;;;26.96;41.70;101226.31;4987004;28;20083;-77
2023/07/14 09:40:50;;;;;;;3.60;1.90;;;;;;;27.22;40.89;101215.03;5005577;28;20443;-77
2023/07/14 09:43:15;;;;;;;3.83;1.80;;;;;;;26.77;40.36;101217.16;5001067;28;20033;-77
2023/07/14 09:45:41;;;;;;;6.93;1.95;;;;;;;26.50;42.01;101217.16;5005175;28;20757;-79
2023/07/14 09:48:15;;;;;;;3.78;1.92;;;;;;;26.73;42.36;101211.53;5019529;28;20376;-77
2023/07/14 09:51:00;;;;;;;4.57;1.63;;;;;;;26.67;42.83;101206.41;4991587;28;20057;-81
2023/07/14 09:53:27;;;;;;;3.88;2.03;;;;;;;26.76;40.88;101199.56;5001952;28;23608;-78
2023/07/14 09:55:59;;;;;;;3.50;1.88;;;;;;;26.97;41.42;101195.19;5004801;28;20037;-78
2023/07/14 09:58:30;;;;;;;4.93;2.17;;;;;;;27.36;42.54;101193.03;5001513;28;20060;-78
2023/07/14 10:00:59;;;;;;;5.35;1.98;;;;;;;27.68;41.88;101194.78;4987930;28;20026;-80
2023/07/14 10:03:30;;;;;;;6.90;1.98;;;;;;;27.34;42.39;101195.16;5007282;28;20045;-80
2023/07/14 10:06:03;;;;;;;4.80;2.00;;;;;;;26.65;43.53;101187.25;5003251;28;20489;-79
2023/07/14 10:08:35;;;;;;;;;;;;;;;26.57;43.51;101204.44;5001751;28;20115;-78
2023/07/14 10:11:19;;;;;;;7.32;2.30;;;;;;;26.78;42.90;101190.28;5010579;28;19914;-78
2023/07/14 10:13:51;;;;;;;3.53;1.77;;;;;;;27.11;40.80;101175.06;5002597;28;20085;-78
2023/07/14 10:16:19;;;;;;;6.18;2.10;;;;;;;27.31;42.77;101181.56;5002884;28;20088;-72
2023/07/14 10:18:50;;;;;;;5.07;2.20;;;;;;;26.72;42.53;101174.56;5000447;28;20048;-79
2023/07/14 10:21:27;;;;;;;8.48;1.80;;;;;;;26.64;43.12;101175.03;5005834;28;20029;-79
2023/07/14 10:24:05;;;;;;;10.05;2.25;;;;;;;26.94;43.46;101172.56;5007787;28;20069;-79
2023/07/14 10:26:36;;;;;;;3.70;1.80;;;;;;;27.13;42.34;101164.97;5023150;28;20029;-77
2023/07/14 10:29:13;;;;;;;4.35;2.05;;;;;;;27.04;40.39;101155.88;5001758;28;20089;-78
2023/07/14 10:31:54;;;;;;;8.07;1.55;;;;;;;26.74;41.21;101159.13;5001702;28;20033;-80
2023/07/14 10:34:23;;;;;;;5.85;1.63;;;;;;;26.83;43.42;101156.81;5022877;28;20053;-79
2023/07/14 10:36:55;;;;;;;4.75;2.00;;;;;;;26.72;43.36;101150.63;5008300;28;20637;-80
2023/07/14 10:39:40;;;;;;;6.82;2.50;;;;;;;27.21;43.10;101144.25;5006413;28;20728;-78
2023/07/14 10:42:11;;;;;;;6.55;1.95;;;;;;;27.74;42.77;101132.47;5007608;28;20041;-78
2023/07/14 10:44:40;;;;;;;6.72;2.10;;;;;;;27.80;43.50;101138.59;4990803;28;20046;-79
2023/07/14 10:47:23;;;;;;;7.38;2.92;;;;;;;27.50;42.02;101137.47;5005963;28;20034;-82
2023/07/14 10:49:59;;;;;;;6.85;2.10;;;;;;;27.36;42.82;101133.69;4988222;28;20041;-82
2023/07/14 10:52:37;;;;;;;9.05;5.00;;;;;;;27.97;43.46;101130.41;5004969;28;20069;-79
2023/07/14 10:55:18;;;;;;;5.75;2.13;;;;;;;27.81;40.98;101118.91;5004588;28;20046;-82
2023/07/14 10:57:49;;;;;;;7.22;2.05;;;;;;;27.64;41.37;101119.13;5008348;28;20057;-82
2023/07/14 11:00:19;;;;;;;4.18;1.85;;;;;;;27.62;41.15;101115.94;5008073;28;20089;-79
2023/07/14 11:02:59;;;;;;;3.97;2.17;;;;;;;28.14;38.57;101109.66;5002277;28;20373;-77
2023/07/14 11:05:27;;;;;;;9.02;2.22;;;;;;;27.62;37.77;101101.84;5015131;28;20061;-76
2023/07/14 11:07:53;;;;;;;4.88;2.00;;;;;;;27.62;39.66;101101.84;4994658;28;20030;-80
2023/07/14 11:10:29;;;;;;;5.63;1.90;;;;;;;27.13;40.39;101102.97;5004887;28;20066;-80
2023/07/14 11:13:09;;;;;;;7.03;2.65;;;;;;;26.92;40.14;101097.53;5009419;28;20022;-78
2023/07/14 11:15:47;;;;;;;4.88;1.85;;;;;;;26.98;40.54;101085.88;4990606;28;20046;-78
2023/07/14 11:18:35;;;;;;;4.35;1.98;;;;;;;27.38;40.60;101094.31;5005868;28;20041;-82
2023/07/14 11:21:39;;;;;;;5.50;2.22;;;;;;;27.11;38.27;101073.94;5008258;28;20052;-76
2023/07/14 11:24:18;;;;;;;3.03;2.05;;;;;;;26.89;39.89;101081.28;5008903;28;20049;-76
2023/07/14 11:27:00;;;;;;;5.78;2.35;;;;;;;26.99;38.65;101063.53;5006585;28;20025;-76
2023/07/14 11:29:30;;;;;;;6.72;2.38;;;;;;;27.23;38.91;101052.44;5009832;28;20065;-81
2023/07/14 11:31:59;;;;;;;7.07;2.15;;;;;;;27.52;37.90;101055.47;5005976;28;20038;-78
2023/07/14 11:34:38;;;;;;;7.72;2.20;;;;;;;27.87;37.98;101063.78;5007987;28;20060;-78
2023/07/14 11:37:31;;;;;;;4.70;1.98;;;;;;;27.50;37.42;101043.47;5010259;28;20313;-77
2023/07/14 11:40:00;;;;;;;;;;;;;;;27.74;37.68;101046.44;5026376;28;20083;-78